sensor_id;sensor_type;location;lat;lon;timestamp;pressure;altitude;pressure_sealevel;temperature;humidity
15674;BME280;7937;48.090;16.212;2023-08-31T00:01:27;97140.63;;;15.44;71.64
15674;BME280;7937;48.090;16.212;2023-08-31T00:04:30;97139.09;;;15.38;74.37
15674;BME280;7937;48.090;16.212;2023-08-31T00:07:33;97148.75;;;15.39;74.24
15674;BME280;7937;48.090;16.212;2023-08-31T00:10:35;97153.88;;;15.36;74.00
15674;BME280;7937;48.090;16.212;2023-08-31T00:13:38;97153.06;;;15.35;74.18
15674;BME280;7937;48.090;16.212;2023-08-31T00:16:41;97148.56;;;15.31;74.18
15674;BME280;7937;48.090;16.212;2023-08-31T00:19:43;97158.16;;;15.37;73.81
15674;BME280;7937;48.090;16.212;2023-08-31T00:22:47;97164.09;;;15.34;75.50
15674;BME280;7937;48.090;16.212;2023-08-31T00:25:51;97160.38;;;15.30;75.78
15674;BME280;7937;48.090;16.212;2023-08-31T00:28:54;97161.47;;;15.29;76.36
15674;BME280;7937;48.090;16.212;2023-08-31T00:31:57;97169.28;;;15.25;76.82
15674;BME280;7937;48.090;16.212;2023-08-31T00:35:00;97166.66;;;15.20;76.53
15674;BME280;7937;48.090;16.212;2023-08-31T00:38:02;97151.59;;;15.24;76.00
15674;BME280;7937;48.090;16.212;2023-08-31T00:41:06;97163.38;;;15.28;76.51
15674;BME280;7937;48.090;16.212;2023-08-31T00:44:09;97160.19;;;15.21;76.84
15674;BME280;7937;48.090;16.212;2023-08-31T00:47:13;97165.06;;;15.19;79.14
15674;BME280;7937;48.090;16.212;2023-08-31T00:50:16;97166.72;;;15.15;76.72
15674;BME280;7937;48.090;16.212;2023-08-31T00:53:19;97172.38;;;15.13;77.44
15674;BME280;7937;48.090;16.212;2023-08-31T00:56:21;97178.94;;;15.26;75.57
15674;BME280;7937;48.090;16.212;2023-08-31T00:59:24;97176.00;;;15.28;76.19
15674;BME280;7937;48.090;16.212;2023-08-31T01:02:56;97177.16;;;15.16;77.35
15674;BME280;7937;48.090;16.212;2023-08-31T01:09:55;97179.63;;;15.13;77.25
15674;BME280;7937;48.090;16.212;2023-08-31T01:13:03;97184.22;;;15.07;78.12
15674;BME280;7937;48.090;16.212;2023-08-31T01:16:07;97198.75;;;15.01;79.36
15674;BME280;7937;48.090;16.212;2023-08-31T01:19:30;97191.84;;;14.95;81.18
15674;BME280;7937;48.090;16.212;2023-08-31T01:22:55;97181.75;;;14.82;83.58
15674;BME280;7937;48.090;16.212;2023-08-31T01:26:00;97191.78;;;14.71;84.64
15674;BME280;7937;48.090;16.212;2023-08-31T01:29:04;97191.31;;;14.64;84.65
15674;BME280;7937;48.090;16.212;2023-08-31T01:32:06;97183.81;;;14.61;85.31
15674;BME280;7937;48.090;16.212;2023-08-31T01:35:17;97187.25;;;14.66;86.97
15674;BME280;7937;48.090;16.212;2023-08-31T01:38:28;97190.28;;;14.55;86.52
15674;BME280;7937;48.090;16.212;2023-08-31T01:41:34;97193.53;;;14.52;86.33
15674;BME280;7937;48.090;16.212;2023-08-31T01:44:38;97163.34;;;14.31;89.11
15674;BME280;7937;48.090;16.212;2023-08-31T01:47:42;97190.34;;;14.44;90.18
15674;BME280;7937;48.090;16.212;2023-08-31T01:50:47;97192.00;;;14.35;91.83
15674;BME280;7937;48.090;16.212;2023-08-31T01:53:49;97197.38;;;14.30;93.34
15674;BME280;7937;48.090;16.212;2023-08-31T01:56:52;97194.75;;;14.25;93.74
15674;BME280;7937;48.090;16.212;2023-08-31T01:59:55;97196.91;;;14.18;94.61
15674;BME280;7937;48.090;16.212;2023-08-31T02:02:57;97196.69;;;14.14;95.82
15674;BME280;7937;48.090;16.212;2023-08-31T02:06:00;97193.22;;;14.09;94.08
15674;BME280;7937;48.090;16.212;2023-08-31T02:09:02;97175.31;;;14.04;90.89
15674;BME280;7937;48.090;16.212;2023-08-31T02:12:05;97200.59;;;14.27;86.67
15674;BME280;7937;48.090;16.212;2023-08-31T02:15:08;97196.28;;;14.36;87.45
15674;BME280;7937;48.090;16.212;2023-08-31T02:18:11;97216.91;;;14.36;89.20
15674;BME280;7937;48.090;16.212;2023-08-31T02:21:13;97206.97;;;14.41;87.74
15674;BME280;7937;48.090;16.212;2023-08-31T02:24:16;97204.03;;;14.38;87.43
15674;BME280;7937;48.090;16.212;2023-08-31T02:27:18;97198.38;;;14.44;88.58
15674;BME280;7937;48.090;16.212;2023-08-31T02:30:23;97205.13;;;14.32;90.25
15674;BME280;7937;48.090;16.212;2023-08-31T02:33:25;97216.13;;;14.35;90.59
15674;BME280;7937;48.090;16.212;2023-08-31T02:36:28;97206.75;;;14.28;92.36
15674;BME280;7937;48.090;16.212;2023-08-31T02:39:30;97214.56;;;14.24;93.33
15674;BME280;7937;48.090;16.212;2023-08-31T02:42:32;97205.50;;;14.15;94.63
15674;BME280;7937;48.090;16.212;2023-08-31T02:45:35;97198.06;;;14.02;95.07
15674;BME280;7937;48.090;16.212;2023-08-31T02:48:38;97225.59;;;14.12;93.92
15674;BME280;7937;48.090;16.212;2023-08-31T02:51:42;97221.03;;;14.13;93.65
15674;BME280;7937;48.090;16.212;2023-08-31T02:54:45;97223.69;;;14.18;92.67
15674;BME280;7937;48.090;16.212;2023-08-31T02:57:47;97222.59;;;14.29;90.00
15674;BME280;7937;48.090;16.212;2023-08-31T03:00:50;97221.81;;;14.24;91.59
15674;BME280;7937;48.090;16.212;2023-08-31T03:03:52;97226.88;;;14.25;90.53
15674;BME280;7937;48.090;16.212;2023-08-31T03:06:56;97214.34;;;14.15;91.47
15674;BME280;7937;48.090;16.212;2023-08-31T03:09:59;97218.63;;;14.16;90.58
15674;BME280;7937;48.090;16.212;2023-08-31T03:13:03;97218.38;;;14.13;91.33
15674;BME280;7937;48.090;16.212;2023-08-31T03:16:06;97220.03;;;14.09;89.58
15674;BME280;7937;48.090;16.212;2023-08-31T03:19:09;97203.94;;;14.09;89.86
15674;BME280;7937;48.090;16.212;2023-08-31T03:22:11;97206.09;;;14.07;89.24
15674;BME280;7937;48.090;16.212;2023-08-31T03:25:15;97222.34;;;14.20;83.25
15674;BME280;7937;48.090;16.212;2023-08-31T03:28:19;97201.91;;;14.35;78.88
15674;BME280;7937;48.090;16.212;2023-08-31T03:31:22;97217.13;;;14.50;80.49
15674;BME280;7937;48.090;16.212;2023-08-31T03:34:29;97202.94;;;14.49;81.23
15674;BME280;7937;48.090;16.212;2023-08-31T03:37:32;97222.75;;;14.43;84.41
15674;BME280;7937;48.090;16.212;2023-08-31T03:40:35;97218.00;;;14.35;86.81
15674;BME280;7937;48.090;16.212;2023-08-31T03:43:40;97230.41;;;14.20;86.75
15674;BME280;7937;48.090;16.212;2023-08-31T03:46:43;97227.28;;;14.53;81.52
15674;BME280;7937;48.090;16.212;2023-08-31T03:49:45;97227.06;;;14.49;83.34
15674;BME280;7937;48.090;16.212;2023-08-31T03:52:49;97228.97;;;14.38;83.11
15674;BME280;7937;48.090;16.212;2023-08-31T03:55:51;97230.03;;;14.37;84.75
15674;BME280;7937;48.090;16.212;2023-08-31T03:58:54;97236.53;;;14.26;86.70
15674;BME280;7937;48.090;16.212;2023-08-31T04:01:57;97240.56;;;14.18;86.95
15674;BME280;7937;48.090;16.212;2023-08-31T04:05:01;97241.97;;;14.11;87.43
15674;BME280;7937;48.090;16.212;2023-08-31T04:08:07;97238.50;;;14.05;82.62
15674;BME280;7937;48.090;16.212;2023-08-31T04:11:09;97242.63;;;14.37;82.05
15674;BME280;7937;48.090;16.212;2023-08-31T04:14:12;97254.91;;;14.53;78.06
15674;BME280;7937;48.090;16.212;2023-08-31T04:17:14;97242.19;;;14.69;78.01
15674;BME280;7937;48.090;16.212;2023-08-31T04:20:17;97216.81;;;14.56;75.04
15674;BME280;7937;48.090;16.212;2023-08-31T04:23:20;97239.72;;;14.78;75.19
15674;BME280;7937;48.090;16.212;2023-08-31T04:26:23;97251.22;;;14.83;74.57
15674;BME280;7937;48.090;16.212;2023-08-31T04:29:26;97250.69;;;14.81;77.55
15674;BME280;7937;48.090;16.212;2023-08-31T04:32:28;97262.06;;;14.68;78.93
15674;BME280;7937;48.090;16.212;2023-08-31T04:35:31;97264.75;;;14.68;81.02
15674;BME280;7937;48.090;16.212;2023-08-31T04:38:34;97267.19;;;14.59;82.38
15674;BME280;7937;48.090;16.212;2023-08-31T04:41:36;97268.53;;;14.57;76.83
15674;BME280;7937;48.090;16.212;2023-08-31T04:44:39;97268.22;;;14.68;75.22
15674;BME280;7937;48.090;16.212;2023-08-31T04:47:41;97267.56;;;14.82;75.28
15674;BME280;7937;48.090;16.212;2023-08-31T04:50:44;97274.56;;;14.83;76.02
15674;BME280;7937;48.090;16.212;2023-08-31T04:53:46;97268.88;;;14.89;75.43
15674;BME280;7937;48.090;16.212;2023-08-31T04:56:50;97279.00;;;14.98;74.11
15674;BME280;7937;48.090;16.212;2023-08-31T04:59:52;97275.47;;;15.02;74.40
15674;BME280;7937;48.090;16.212;2023-08-31T05:02:56;97280.53;;;15.09;74.70
15674;BME280;7937;48.090;16.212;2023-08-31T05:05:58;97282.41;;;15.08;80.19
15674;BME280;7937;48.090;16.212;2023-08-31T05:09:01;97285.53;;;14.81;83.34
15674;BME280;7937;48.090;16.212;2023-08-31T05:12:03;97284.56;;;14.67;83.68
15674;BME280;7937;48.090;16.212;2023-08-31T05:15:06;97290.25;;;14.55;84.52
15674;BME280;7937;48.090;16.212;2023-08-31T05:18:09;97296.75;;;14.49;85.77
15674;BME280;7937;48.090;16.212;2023-08-31T05:21:12;97305.56;;;14.50;84.97
15674;BME280;7937;48.090;16.212;2023-08-31T05:24:14;97302.09;;;14.44;81.81
15674;BME280;7937;48.090;16.212;2023-08-31T05:27:17;97309.75;;;14.71;77.27
15674;BME280;7937;48.090;16.212;2023-08-31T05:30:20;97307.41;;;15.04;72.68
15674;BME280;7937;48.090;16.212;2023-08-31T05:33:23;97299.69;;;15.26;72.47
15674;BME280;7937;48.090;16.212;2023-08-31T05:36:27;97308.44;;;15.42;73.50
15674;BME280;7937;48.090;16.212;2023-08-31T05:39:30;97283.59;;;15.26;72.10
15674;BME280;7937;48.090;16.212;2023-08-31T05:42:32;97309.41;;;15.51;72.61
15674;BME280;7937;48.090;16.212;2023-08-31T05:45:35;97278.63;;;15.43;72.83
15674;BME280;7937;48.090;16.212;2023-08-31T05:48:37;97304.22;;;15.60;72.94
15674;BME280;7937;48.090;16.212;2023-08-31T05:51:40;97310.34;;;15.70;74.66
15674;BME280;7937;48.090;16.212;2023-08-31T05:54:43;97307.75;;;15.55;76.98
15674;BME280;7937;48.090;16.212;2023-08-31T05:57:45;97324.91;;;15.64;76.06
15674;BME280;7937;48.090;16.212;2023-08-31T06:00:47;97322.47;;;15.68;77.28
15674;BME280;7937;48.090;16.212;2023-08-31T06:03:50;97308.78;;;15.64;75.45
15674;BME280;7937;48.090;16.212;2023-08-31T06:06:52;97306.91;;;15.65;76.43
15674;BME280;7937;48.090;16.212;2023-08-31T06:09:56;97322.31;;;15.83;77.19
15674;BME280;7937;48.090;16.212;2023-08-31T06:12:59;97333.56;;;15.85;77.95
15674;BME280;7937;48.090;16.212;2023-08-31T06:16:01;97315.53;;;15.86;74.44
15674;BME280;7937;48.090;16.212;2023-08-31T06:19:04;97328.38;;;15.94;74.57
15674;BME280;7937;48.090;16.212;2023-08-31T06:22:07;97330.75;;;15.95;71.00
15674;BME280;7937;48.090;16.212;2023-08-31T06:25:09;97334.72;;;16.03;70.88
15674;BME280;7937;48.090;16.212;2023-08-31T06:28:13;97329.34;;;16.03;70.60
15674;BME280;7937;48.090;16.212;2023-08-31T06:31:15;97337.06;;;16.10;71.70
15674;BME280;7937;48.090;16.212;2023-08-31T06:34:18;97336.56;;;16.08;73.89
15674;BME280;7937;48.090;16.212;2023-08-31T06:37:20;97344.38;;;16.04;76.43
15674;BME280;7937;48.090;16.212;2023-08-31T06:40:24;97345.75;;;16.02;71.47
15674;BME280;7937;48.090;16.212;2023-08-31T06:43:26;97343.88;;;16.02;72.78
15674;BME280;7937;48.090;16.212;2023-08-31T06:46:29;97350.84;;;16.03;73.51
15674;BME280;7937;48.090;16.212;2023-08-31T06:49:31;97331.63;;;15.91;74.33
15674;BME280;7937;48.090;16.212;2023-08-31T06:52:35;97357.56;;;16.00;73.54
15674;BME280;7937;48.090;16.212;2023-08-31T06:59:02;97336.97;;;15.91;74.64
15674;BME280;7937;48.090;16.212;2023-08-31T07:02:05;97354.84;;;16.06;73.71
15674;BME280;7937;48.090;16.212;2023-08-31T07:05:10;97353.47;;;16.08;72.80
15674;BME280;7937;48.090;16.212;2023-08-31T07:08:13;97370.63;;;16.12;73.84
15674;BME280;7937;48.090;16.212;2023-08-31T07:11:18;97371.63;;;16.21;73.65
15674;BME280;7937;48.090;16.212;2023-08-31T07:14:21;97385.31;;;16.20;75.18
15674;BME280;7937;48.090;16.212;2023-08-31T07:17:23;97390.44;;;16.21;72.16
15674;BME280;7937;48.090;16.212;2023-08-31T07:20:26;97390.63;;;16.25;72.38
15674;BME280;7937;48.090;16.212;2023-08-31T07:23:29;97386.84;;;16.31;72.50
15674;BME280;7937;48.090;16.212;2023-08-31T07:26:31;97395.06;;;16.40;73.44
15674;BME280;7937;48.090;16.212;2023-08-31T07:29:34;97396.63;;;16.46;73.88
15674;BME280;7937;48.090;16.212;2023-08-31T07:32:36;97405.53;;;16.65;70.41
15674;BME280;7937;48.090;16.212;2023-08-31T07:35:39;97378.91;;;16.88;67.91
15674;BME280;7937;48.090;16.212;2023-08-31T07:38:42;97397.59;;;17.36;65.21
15674;BME280;7937;48.090;16.212;2023-08-31T07:41:44;97412.91;;;17.40;68.19
15674;BME280;7937;48.090;16.212;2023-08-31T07:44:47;97417.41;;;17.45;64.98
15674;BME280;7937;48.090;16.212;2023-08-31T07:47:50;97421.44;;;17.61;66.22
15674;BME280;7937;48.090;16.212;2023-08-31T07:50:52;97433.81;;;17.62;66.20
15674;BME280;7937;48.090;16.212;2023-08-31T07:53:55;97431.13;;;17.62;67.67
15674;BME280;7937;48.090;16.212;2023-08-31T07:56:57;97421.38;;;17.66;66.68
15674;BME280;7937;48.090;16.212;2023-08-31T08:00:02;97425.38;;;17.69;67.19
15674;BME280;7937;48.090;16.212;2023-08-31T08:03:13;97437.41;;;17.76;67.60
15674;BME280;7937;48.090;16.212;2023-08-31T08:06:17;97431.91;;;18.00;62.54
15674;BME280;7937;48.090;16.212;2023-08-31T08:09:19;97445.88;;;18.02;66.13
15674;BME280;7937;48.090;16.212;2023-08-31T08:12:22;97442.97;;;17.99;64.81
15674;BME280;7937;48.090;16.212;2023-08-31T08:15:25;97434.97;;;17.94;64.11
15674;BME280;7937;48.090;16.212;2023-08-31T08:18:27;97446.38;;;18.04;62.84
15674;BME280;7937;48.090;16.212;2023-08-31T08:21:32;97439.09;;;18.05;63.33
15674;BME280;7937;48.090;16.212;2023-08-31T08:24:35;97435.34;;;18.20;59.86
15674;BME280;7937;48.090;16.212;2023-08-31T08:27:37;97425.19;;;17.98;62.79
15674;BME280;7937;48.090;16.212;2023-08-31T08:30:40;97429.19;;;18.00;62.35
15674;BME280;7937;48.090;16.212;2023-08-31T08:33:42;97430.69;;;18.07;61.83
15674;BME280;7937;48.090;16.212;2023-08-31T08:36:44;97438.91;;;18.15;62.23
15674;BME280;7937;48.090;16.212;2023-08-31T08:39:52;97420.25;;;18.19;62.87
15674;BME280;7937;48.090;16.212;2023-08-31T08:43:28;97464.84;;;18.44;63.51
15674;BME280;7937;48.090;16.212;2023-08-31T08:46:40;97455.25;;;18.38;59.59
15674;BME280;7937;48.090;16.212;2023-08-31T08:49:44;97455.34;;;18.46;58.09
15674;BME280;7937;48.090;16.212;2023-08-31T08:52:51;97458.47;;;18.53;59.56
15674;BME280;7937;48.090;16.212;2023-08-31T08:55:54;97460.31;;;18.72;58.46
15674;BME280;7937;48.090;16.212;2023-08-31T08:58:57;97467.66;;;18.66;61.65
15674;BME280;7937;48.090;16.212;2023-08-31T09:01:59;97467.47;;;18.76;58.59
15674;BME280;7937;48.090;16.212;2023-08-31T09:05:02;97464.88;;;18.71;60.23
15674;BME280;7937;48.090;16.212;2023-08-31T09:08:07;97471.69;;;18.69;61.33
15674;BME280;7937;48.090;16.212;2023-08-31T09:11:20;97447.88;;;18.57;61.72
15674;BME280;7937;48.090;16.212;2023-08-31T09:14:26;97463.19;;;18.89;58.60
15674;BME280;7937;48.090;16.212;2023-08-31T09:17:41;97467.00;;;18.88;59.98
15674;BME280;7937;48.090;16.212;2023-08-31T09:20:47;97467.00;;;19.02;61.10
15674;BME280;7937;48.090;16.212;2023-08-31T09:23:58;97488.97;;;19.09;57.43
15674;BME280;7937;48.090;16.212;2023-08-31T09:27:00;97489.44;;;19.11;57.07
15674;BME280;7937;48.090;16.212;2023-08-31T09:30:10;97469.06;;;19.05;56.10
15674;BME280;7937;48.090;16.212;2023-08-31T09:33:35;97488.06;;;19.14;57.64
15674;BME280;7937;48.090;16.212;2023-08-31T09:36:43;97503.03;;;19.33;54.10
15674;BME280;7937;48.090;16.212;2023-08-31T09:39:49;97494.16;;;19.19;54.86
15674;BME280;7937;48.090;16.212;2023-08-31T09:42:54;97506.47;;;19.12;56.99
15674;BME280;7937;48.090;16.212;2023-08-31T09:45:57;97505.75;;;19.20;57.16
15674;BME280;7937;48.090;16.212;2023-08-31T09:49:00;97511.06;;;19.11;56.72
15674;BME280;7937;48.090;16.212;2023-08-31T09:52:09;97520.75;;;19.26;54.86
15674;BME280;7937;48.090;16.212;2023-08-31T09:55:16;97503.06;;;19.20;55.21
15674;BME280;7937;48.090;16.212;2023-08-31T09:58:22;97486.06;;;19.19;58.70
15674;BME280;7937;48.090;16.212;2023-08-31T10:01:25;97489.34;;;19.30;55.07
15674;BME280;7937;48.090;16.212;2023-08-31T10:04:31;97504.81;;;19.52;54.99
15674;BME280;7937;48.090;16.212;2023-08-31T10:07:45;97493.00;;;19.62;54.67
15674;BME280;7937;48.090;16.212;2023-08-31T10:10:50;97503.16;;;19.78;50.32
15674;BME280;7937;48.090;16.212;2023-08-31T10:13:55;97502.47;;;19.59;51.48
15674;BME280;7937;48.090;16.212;2023-08-31T10:16:59;97511.06;;;19.75;50.54
15674;BME280;7937;48.090;16.212;2023-08-31T10:20:04;97529.97;;;19.89;50.05
15674;BME280;7937;48.090;16.212;2023-08-31T10:23:07;97508.31;;;19.66;50.08
15674;BME280;7937;48.090;16.212;2023-08-31T10:26:09;97561.41;;;19.84;51.08
15674;BME280;7937;48.090;16.212;2023-08-31T10:29:26;97565.31;;;19.78;50.75
15674;BME280;7937;48.090;16.212;2023-08-31T10:32:32;97583.78;;;19.76;49.39
15674;BME280;7937;48.090;16.212;2023-08-31T10:35:41;97560.25;;;19.49;51.66
15674;BME280;7937;48.090;16.212;2023-08-31T10:42:02;97551.84;;;19.51;50.53
15674;BME280;7937;48.090;16.212;2023-08-31T10:45:09;97555.66;;;19.64;53.12
15674;BME280;7937;48.090;16.212;2023-08-31T10:48:11;97548.66;;;19.63;52.30
15674;BME280;7937;48.090;16.212;2023-08-31T10:51:17;97531.16;;;19.46;49.98
15674;BME280;7937;48.090;16.212;2023-08-31T10:54:25;97551.34;;;19.63;50.22
15674;BME280;7937;48.090;16.212;2023-08-31T10:57:30;97551.97;;;19.46;53.11
15674;BME280;7937;48.090;16.212;2023-08-31T11:00:52;97552.56;;;19.43;50.47
15674;BME280;7937;48.090;16.212;2023-08-31T11:03:59;97568.66;;;19.48;51.39
15674;BME280;7937;48.090;16.212;2023-08-31T11:07:19;97551.44;;;19.57;52.56
15674;BME280;7937;48.090;16.212;2023-08-31T11:10:24;97544.94;;;19.95;49.96
15674;BME280;7937;48.090;16.212;2023-08-31T11:13:30;97558.19;;;19.96;49.66
15674;BME280;7937;48.090;16.212;2023-08-31T11:16:32;97558.97;;;19.97;50.09
15674;BME280;7937;48.090;16.212;2023-08-31T11:19:35;97559.78;;;19.97;52.00
15674;BME280;7937;48.090;16.212;2023-08-31T11:22:40;97519.78;;;19.86;52.31
15674;BME280;7937;48.090;16.212;2023-08-31T11:25:43;97565.22;;;20.20;51.66
15674;BME280;7937;48.090;16.212;2023-08-31T11:28:46;97563.47;;;20.24;49.54
15674;BME280;7937;48.090;16.212;2023-08-31T11:31:59;97551.44;;;20.30;48.37
15674;BME280;7937;48.090;16.212;2023-08-31T11:35:38;97554.19;;;20.16;47.82
15674;BME280;7937;48.090;16.212;2023-08-31T11:39:06;97569.69;;;20.02;49.32
15674;BME280;7937;48.090;16.212;2023-08-31T11:42:12;97586.13;;;19.92;51.00
15674;BME280;7937;48.090;16.212;2023-08-31T11:45:28;97578.03;;;19.92;51.81
15674;BME280;7937;48.090;16.212;2023-08-31T11:48:33;97582.47;;;20.10;50.81
15674;BME280;7937;48.090;16.212;2023-08-31T11:51:37;97574.78;;;20.03;51.25
15674;BME280;7937;48.090;16.212;2023-08-31T11:54:44;97579.78;;;20.10;49.84
15674;BME280;7937;48.090;16.212;2023-08-31T12:01:20;97595.78;;;20.20;49.18
15674;BME280;7937;48.090;16.212;2023-08-31T12:04:22;97583.56;;;20.09;49.15
15674;BME280;7937;48.090;16.212;2023-08-31T12:07:25;97596.28;;;20.08;49.15
15674;BME280;7937;48.090;16.212;2023-08-31T12:10:27;97585.38;;;20.00;50.62
15674;BME280;7937;48.090;16.212;2023-08-31T12:13:30;97594.44;;;19.95;50.54
15674;BME280;7937;48.090;16.212;2023-08-31T12:16:36;97612.75;;;19.98;49.58
15674;BME280;7937;48.090;16.212;2023-08-31T12:19:39;97606.31;;;19.72;50.01
15674;BME280;7937;48.090;16.212;2023-08-31T12:22:41;97601.34;;;19.88;50.58
15674;BME280;7937;48.090;16.212;2023-08-31T12:25:54;97596.53;;;19.98;52.42
15674;BME280;7937;48.090;16.212;2023-08-31T12:28:57;97603.25;;;20.01;48.76
15674;BME280;7937;48.090;16.212;2023-08-31T12:31:59;97606.66;;;19.93;49.71
15674;BME280;7937;48.090;16.212;2023-08-31T12:35:01;97599.47;;;19.74;49.94
15674;BME280;7937;48.090;16.212;2023-08-31T12:38:05;97588.75;;;19.83;49.22
15674;BME280;7937;48.090;16.212;2023-08-31T12:41:07;97597.84;;;19.87;50.39
15674;BME280;7937;48.090;16.212;2023-08-31T12:44:11;97597.53;;;19.89;48.77
15674;BME280;7937;48.090;16.212;2023-08-31T12:47:13;97594.63;;;19.85;50.87
15674;BME280;7937;48.090;16.212;2023-08-31T12:50:16;97595.16;;;19.87;49.69
15674;BME280;7937;48.090;16.212;2023-08-31T12:53:22;97589.53;;;19.97;47.78
15674;BME280;7937;48.090;16.212;2023-08-31T12:56:25;97597.41;;;20.07;44.45
15674;BME280;7937;48.090;16.212;2023-08-31T12:59:28;97592.72;;;19.99;46.47
15674;BME280;7937;48.090;16.212;2023-08-31T13:02:30;97595.50;;;20.08;46.33
15674;BME280;7937;48.090;16.212;2023-08-31T13:05:33;97598.28;;;20.17;48.20
15674;BME280;7937;48.090;16.212;2023-08-31T13:08:35;97581.53;;;20.15;45.99
15674;BME280;7937;48.090;16.212;2023-08-31T13:11:38;97588.59;;;20.02;49.05
15674;BME280;7937;48.090;16.212;2023-08-31T13:14:40;97584.78;;;20.03;47.39
15674;BME280;7937;48.090;16.212;2023-08-31T13:17:43;97585.81;;;19.93;48.54
15674;BME280;7937;48.090;16.212;2023-08-31T13:20:49;97584.22;;;19.92;49.28
15674;BME280;7937;48.090;16.212;2023-08-31T13:23:52;97578.22;;;19.95;48.77
15674;BME280;7937;48.090;16.212;2023-08-31T13:26:55;97579.31;;;19.94;47.95
15674;BME280;7937;48.090;16.212;2023-08-31T13:29:57;97586.03;;;19.97;48.25
15674;BME280;7937;48.090;16.212;2023-08-31T13:33:00;97592.22;;;19.97;48.17
15674;BME280;7937;48.090;16.212;2023-08-31T13:36:02;97598.31;;;20.03;48.45
15674;BME280;7937;48.090;16.212;2023-08-31T13:39:05;97589.72;;;20.01;47.47
15674;BME280;7937;48.090;16.212;2023-08-31T13:42:09;97586.13;;;19.92;50.06
15674;BME280;7937;48.090;16.212;2023-08-31T13:45:11;97583.03;;;20.21;47.08
15674;BME280;7937;48.090;16.212;2023-08-31T13:48:13;97583.78;;;19.99;49.08
15674;BME280;7937;48.090;16.212;2023-08-31T13:51:17;97579.94;;;19.91;49.23
15674;BME280;7937;48.090;16.212;2023-08-31T13:54:22;97589.06;;;19.81;49.04
15674;BME280;7937;48.090;16.212;2023-08-31T13:57:27;97598.22;;;19.94;49.37
15674;BME280;7937;48.090;16.212;2023-08-31T14:00:30;97593.09;;;20.06;48.87
15674;BME280;7937;48.090;16.212;2023-08-31T14:03:41;97585.88;;;20.16;47.74
15674;BME280;7937;48.090;16.212;2023-08-31T14:07:04;97583.56;;;20.09;49.58
15674;BME280;7937;48.090;16.212;2023-08-31T14:10:13;97587.94;;;20.19;47.42
15674;BME280;7937;48.090;16.212;2023-08-31T14:13:27;97585.88;;;20.16;47.02
15674;BME280;7937;48.090;16.212;2023-08-31T14:16:42;97592.47;;;20.09;48.91
15674;BME280;7937;48.090;16.212;2023-08-31T14:19:45;97577.81;;;19.88;49.34
15674;BME280;7937;48.090;16.212;2023-08-31T14:22:55;97601.22;;;20.06;47.85
15674;BME280;7937;48.090;16.212;2023-08-31T14:26:05;97587.81;;;20.01;47.26
15674;BME280;7937;48.090;16.212;2023-08-31T14:29:09;97600.22;;;20.02;47.32
15674;BME280;7937;48.090;16.212;2023-08-31T14:32:25;97599.00;;;20.08;46.95
15674;BME280;7937;48.090;16.212;2023-08-31T14:36:02;97582.47;;;20.10;46.60
15674;BME280;7937;48.090;16.212;2023-08-31T14:39:38;97591.78;;;20.04;47.14
15674;BME280;7937;48.090;16.212;2023-08-31T14:42:52;97586.59;;;20.07;46.03
15674;BME280;7937;48.090;16.212;2023-08-31T14:45:59;97577.13;;;19.82;47.64
15674;BME280;7937;48.090;16.212;2023-08-31T14:49:06;97592.25;;;19.83;48.39
15674;BME280;7937;48.090;16.212;2023-08-31T14:52:10;97590.75;;;19.91;48.23
15674;BME280;7937;48.090;16.212;2023-08-31T14:55:13;97596.25;;;19.86;49.80
15674;BME280;7937;48.090;16.212;2023-08-31T14:58:15;97589.09;;;19.68;50.38
15674;BME280;7937;48.090;16.212;2023-08-31T15:01:19;97598.47;;;19.70;47.68
15674;BME280;7937;48.090;16.212;2023-08-31T15:04:22;97589.88;;;19.82;47.79
15674;BME280;7937;48.090;16.212;2023-08-31T15:07:25;97603.59;;;19.72;49.20
15674;BME280;7937;48.090;16.212;2023-08-31T15:10:28;97606.50;;;19.75;48.02
15674;BME280;7937;48.090;16.212;2023-08-31T15:13:32;97611.69;;;19.58;51.12
15674;BME280;7937;48.090;16.212;2023-08-31T15:16:34;97611.41;;;19.46;49.79
15674;BME280;7937;48.090;16.212;2023-08-31T15:19:39;97625.09;;;19.36;53.12
15674;BME280;7937;48.090;16.212;2023-08-31T15:22:42;97614.19;;;19.27;49.13
15674;BME280;7937;48.090;16.212;2023-08-31T15:25:45;97619.28;;;19.28;50.71
15674;BME280;7937;48.090;16.212;2023-08-31T15:28:51;97621.88;;;19.20;50.95
15674;BME280;7937;48.090;16.212;2023-08-31T15:31:54;97626.88;;;19.13;54.15
15674;BME280;7937;48.090;16.212;2023-08-31T15:34:57;97632.66;;;19.06;49.52
15674;BME280;7937;48.090;16.212;2023-08-31T15:38:01;97625.38;;;19.06;49.10
15674;BME280;7937;48.090;16.212;2023-08-31T15:41:07;97627.06;;;19.02;48.29
15674;BME280;7937;48.090;16.212;2023-08-31T15:44:10;97633.28;;;19.03;49.43
15674;BME280;7937;48.090;16.212;2023-08-31T15:47:12;97636.06;;;18.98;50.79
15674;BME280;7937;48.090;16.212;2023-08-31T15:50:15;97637.53;;;18.90;52.40
15674;BME280;7937;48.090;16.212;2023-08-31T15:53:18;97636.78;;;18.71;53.89
15674;BME280;7937;48.090;16.212;2023-08-31T15:56:21;97640.63;;;18.65;54.57
15674;BME280;7937;48.090;16.212;2023-08-31T15:59:24;97645.19;;;18.69;52.70
15674;BME280;7937;48.090;16.212;2023-08-31T16:02:37;97645.47;;;18.68;51.44
15674;BME280;7937;48.090;16.212;2023-08-31T16:06:13;97640.88;;;18.68;51.53
15674;BME280;7937;48.090;16.212;2023-08-31T16:09:16;97637.44;;;18.63;54.24
15674;BME280;7937;48.090;16.212;2023-08-31T16:12:20;97640.09;;;18.49;54.90
15674;BME280;7937;48.090;16.212;2023-08-31T16:15:27;97646.00;;;18.32;55.77
15674;BME280;7937;48.090;16.212;2023-08-31T16:18:30;97649.59;;;18.27;53.93
15674;BME280;7937;48.090;16.212;2023-08-31T16:21:33;97652.28;;;18.27;55.50
15674;BME280;7937;48.090;16.212;2023-08-31T16:24:36;97654.03;;;18.18;57.16
15674;BME280;7937;48.090;16.212;2023-08-31T16:27:39;97635.00;;;17.91;58.13
15674;BME280;7937;48.090;16.212;2023-08-31T16:30:46;97645.84;;;17.86;61.27
15674;BME280;7937;48.090;16.212;2023-08-31T16:33:50;97656.78;;;17.70;60.18